Hauptseite
METAR-TAF:

METAR-TAF

Flughäfen :

Flughafen Mytilini

Mytilini-Lesbos, Griechenland

Breite: 39-04N, Länge: 026-36E, Höhe: 3 m

Beobachtung

Neuester Wetterbericht von vor 35 Minuten, um 15:50 UTC
Wind 3 kt aus unterschiedlichen Richtungen
Temperatur 9°C
Luftfeuchtigkeit 76%
Luftdruck 1027 hPa
Sichtweite 10 km oder mehr
Leicht bewölkt in der Höhe von 2500 ft

METAR: LGMT 251550Z VRB03KT 9999 FEW025 09/05 Q1027

Zeit: 18:25 (16:25 UTC)

Prognose

Neuester Wetterbericht von vor 2 Stunden und 25 Minuten, um 14:00 UTC
Gültige Prognose vom 25 um 15 UTC bis 25 um 24 UTC
Wind 15 kt aus Süd
Sichtweite 10 km oder mehr
Leicht bewölkt in der Höhe von 2000 ft

TAF: LGMT 251400Z 2515/2524 17015KT 9999 FEW020

Wetterbeobachtungen und Prognosen von mehr als 4000 Flughäfen (METAR und TAF Bericht).

Die verfügbaren Stationen werden durch gelbe und rote Markierungen auf der Karte dargestellt.

Führen Sie die Maus auf sie, um den Namen der Station zu sehen.

Darauf klicken, um die Beobachtung von Wetterbeobachtungen und Prognosen zu sehen.

Um die Karte zu ändern : klicken Sie auf den grünen Tasten mit einem schwarzen Kreuz Zum Vergrößern, auf den grünen Button mit einem Gedankenstrich zu verkleinern, oder auf die grünen Pfeile für benachbarte Karten.


METAR-TAF: